Yurovsk, Russia
Current Conditions -  °F | °C
As of 7:00 PM on Tuesday 27 Jan 2015 (Local Time) from USHH Reporting Station
Broken Clouds Broken Clouds  
Wind Chill:   Ceiling: 8000
Heat Index: 12°   Visibility: 6mi
Dew Point:   Wind: 9mph
Humidity: 79%   Direction: 230°SW
Pressure: 30.06"   Gusts: NA
Location:  59.47°N, 69.07°E
Report Text: USHH 271400Z 23004MPS 9999 FEW033CB BKN080 M11/M14 Q1018 TEMPO2000 SHSN RMK QFE759 24////37
Loading
Personal Weather Stations






























Interactive Weather Map New forecast layout! Learn more

10-Day Weather Forecast

Advertisements
Track Severe Weather on mobile